Time;durP1;ratioP1;P1;durP2;ratioP2;P2;SDS_P1;SDS_P2;PMS_P1;PMS_P2;Temp;Humidity;BMP_temperature;BMP_pressure;BME280_temperature;BME280_humidity;BME280_pressure;Samples;Min_cycle;Max_cycle;Signal;HPM_P1;HPM_P2
2023/08/30 00:01:29;;;;;;;8.60;2.80;;;15.90;58.20;;;;;;5013854;28;20551;-69
2023/08/30 00:03:56;;;;;;;5.97;1.90;;;15.90;58.40;;;;;;5009534;28;20033;-70
2023/08/30 00:06:25;;;;;;;6.40;2.47;;;15.90;58.50;;;;;;5012581;28;20053;-69
2023/08/30 00:08:52;;;;;;;5.75;2.08;;;15.80;58.40;;;;;;5020232;28;20041;-72
2023/08/30 00:11:18;;;;;;;5.07;2.00;;;15.80;58.50;;;;;;5012952;28;20037;-69
2023/08/30 00:13:44;;;;;;;6.68;2.30;;;15.80;58.50;;;;;;5011893;28;20503;-69
2023/08/30 00:16:12;;;;;;;5.28;2.20;;;15.80;58.60;;;;;;5012947;28;20022;-69
2023/08/30 00:18:45;;;;;;;3.92;2.33;;;15.80;58.70;;;;;;5013716;28;20083;-69
2023/08/30 00:21:16;;;;;;;5.40;2.25;;;15.80;58.80;;;;;;5018144;28;20087;-69
2023/08/30 00:23:42;;;;;;;5.80;2.20;;;15.80;58.90;;;;;;5014865;28;20026;-72
2023/08/30 00:26:09;;;;;;;7.53;2.78;;;15.80;59.00;;;;;;5017102;28;20410;-73
2023/08/30 00:28:35;;;;;;;7.45;1.75;;;15.80;59.10;;;;;;5004606;28;20129;-71
2023/08/30 00:31:01;;;;;;;5.88;2.75;;;15.80;59.20;;;;;;5013649;28;20038;-73
2023/08/30 00:33:28;;;;;;;4.90;2.13;;;15.80;59.20;;;;;;5017126;28;20156;-68
2023/08/30 00:35:57;;;;;;;3.53;1.83;;;15.70;59.20;;;;;;5016556;28;20234;-71
2023/08/30 00:38:27;;;;;;;5.13;2.78;;;15.70;59.20;;;;;;5020513;28;20452;-69
2023/08/30 00:40:55;;;;;;;4.63;2.17;;;15.70;59.30;;;;;;5015509;28;20377;-74
2023/08/30 00:43:21;;;;;;;7.05;2.67;;;15.60;59.10;;;;;;5010306;28;20450;-70
2023/08/30 00:45:49;;;;;;;4.63;2.05;;;15.60;59.20;;;;;;5014469;28;20120;-74
2023/08/30 00:48:16;;;;;;;4.28;2.40;;;15.60;59.30;;;;;;5011222;28;20037;-74
2023/08/30 00:50:44;;;;;;;7.47;3.22;;;15.50;59.20;;;;;;5029308;28;20522;-74
2023/08/30 00:53:12;;;;;;;3.42;2.00;;;15.50;59.20;;;;;;5011923;28;20444;-75
2023/08/30 00:55:42;;;;;;;5.40;2.70;;;15.50;59.20;;;;;;5015773;28;20490;-74
2023/08/30 00:58:10;;;;;;;5.97;2.70;;;15.50;59.30;;;;;;5010463;28;20072;-71
2023/08/30 01:00:36;;;;;;;3.55;2.05;;;15.40;59.20;;;;;;5013721;28;20112;-72
2023/08/30 01:03:05;;;;;;;4.50;1.95;;;15.40;59.20;;;;;;5013271;28;20454;-75
2023/08/30 01:05:31;;;;;;;3.65;1.85;;;15.30;59.70;;;;;;5020285;28;20135;-69
2023/08/30 01:08:01;;;;;;;5.25;2.30;;;15.30;59.20;;;;;;5012449;28;20033;-69
2023/08/30 01:10:47;;;;;;;4.97;2.08;;;15.30;59.30;;;;;;5024654;28;20124;-67
2023/08/30 01:13:19;;;;;;;5.60;2.28;;;15.20;59.20;;;;;;5021088;28;20157;-68
2023/08/30 01:15:48;;;;;;;3.97;2.40;;;15.20;59.20;;;;;;5017025;28;20109;-71
2023/08/30 01:18:17;;;;;;;4.00;1.95;;;15.10;59.10;;;;;;5016172;28;20285;-71
2023/08/30 01:20:46;;;;;;;6.90;2.25;;;15.10;59.20;;;;;;5020977;28;20564;-68
2023/08/30 01:23:20;;;;;;;3.58;2.00;;;15.10;59.30;;;;;;5018455;28;20040;-70
2023/08/30 01:26:22;;;;;;;4.00;2.33;;;15.00;59.20;;;;;;5013556;28;20029;-70
2023/08/30 01:28:52;;;;;;;3.78;2.00;;;15.00;59.30;;;;;;4944278;28;20389;-69
2023/08/30 01:31:21;;;;;;;4.57;2.40;;;14.90;59.10;;;;;;5008146;28;20033;-70
2023/08/30 01:33:49;;;;;;;4.45;2.20;;;14.90;59.20;;;;;;5014690;28;20029;-71
2023/08/30 01:36:16;;;;;;;6.50;3.03;;;14.90;59.30;;;;;;5012108;28;20056;-70
2023/08/30 01:38:43;;;;;;;5.18;2.00;;;14.90;59.30;;;;;;5013720;28;20373;-73
2023/08/30 01:41:10;;;;;;;5.55;2.20;;;14.90;59.50;;;;;;5017066;28;20037;-72
2023/08/30 01:43:37;;;;;;;2.65;2.10;;;14.90;59.50;;;;;;5017473;28;20060;-71
2023/08/30 01:46:05;;;;;;;3.85;2.03;;;14.80;59.40;;;;;;5018398;28;20050;-72
2023/08/30 01:48:34;;;;;;;3.95;2.22;;;14.80;59.50;;;;;;5017034;28;20375;-71
2023/08/30 01:51:00;;;;;;;4.55;2.65;;;14.80;59.50;;;;;;5008341;28;20048;-69
2023/08/30 01:53:27;;;;;;;5.50;2.00;;;14.80;60.20;;;;;;5014247;28;20093;-69
2023/08/30 01:55:53;;;;;;;5.35;2.75;;;14.80;59.70;;;;;;5010367;28;20312;-68
2023/08/30 01:58:20;;;;;;;3.58;2.28;;;14.80;59.70;;;;;;5013925;28;20043;-68
2023/08/30 02:00:47;;;;;;;4.63;1.95;;;14.80;59.80;;;;;;5018197;28;20508;-69
2023/08/30 02:03:14;;;;;;;4.45;2.22;;;14.80;59.90;;;;;;5018556;28;20029;-68
2023/08/30 02:06:08;;;;;;;3.45;2.15;;;14.80;60.00;;;;;;5019815;28;20033;-71
2023/08/30 02:08:43;;;;;;;3.95;1.92;;;14.80;60.10;;;;;;5009313;28;20069;-68
2023/08/30 02:11:16;;;;;;;4.65;2.13;;;14.80;60.10;;;;;;5016434;28;20548;-69
2023/08/30 02:13:44;;;;;;;5.45;2.30;;;14.80;60.10;;;;;;5008710;28;20040;-74
2023/08/30 02:16:13;;;;;;;5.55;2.60;;;14.80;60.10;;;;;;5009796;28;20040;-71
2023/08/30 02:18:42;;;;;;;4.40;2.15;;;14.80;60.10;;;;;;5017439;28;20056;-74
2023/08/30 02:21:08;;;;;;;3.95;2.70;;;14.80;60.10;;;;;;5019565;28;20060;-74
2023/08/30 02:23:34;;;;;;;5.25;2.10;;;14.80;60.20;;;;;;5012785;28;20446;-73
2023/08/30 02:26:00;;;;;;;2.58;1.83;;;14.90;60.50;;;;;;5018446;28;20060;-75
2023/08/30 02:28:26;;;;;;;5.07;2.30;;;14.80;60.30;;;;;;5013349;28;20041;-73
2023/08/30 02:30:54;;;;;;;3.05;2.03;;;14.90;60.60;;;;;;5017218;28;20093;-74
2023/08/30 02:33:19;;;;;;;4.10;1.90;;;14.90;60.60;;;;;;5019409;28;20038;-73
2023/08/30 02:35:46;;;;;;;3.95;2.35;;;14.80;60.50;;;;;;5015026;28;20500;-71
2023/08/30 02:38:12;;;;;;;4.57;2.53;;;14.80;60.50;;;;;;5021269;28;20029;-70
2023/08/30 02:40:38;;;;;;;3.40;1.98;;;14.90;60.80;;;;;;5010460;28;20033;-72
2023/08/30 02:43:04;;;;;;;4.40;1.95;;;14.90;60.80;;;;;;5014734;28;20092;-72
2023/08/30 02:45:31;;;;;;;5.38;2.00;;;14.90;60.90;;;;;;5009294;28;20037;-75
2023/08/30 02:47:57;;;;;;;4.47;2.25;;;14.90;60.90;;;;;;5005113;28;20029;-75
2023/08/30 02:50:24;;;;;;;3.60;1.83;;;14.80;60.80;;;;;;5018507;28;20310;-67
2023/08/30 02:52:52;;;;;;;4.25;3.05;;;14.90;61.00;;;;;;5015752;28;20113;-71
2023/08/30 02:55:18;;;;;;;4.07;1.88;;;14.90;61.60;;;;;;5009656;28;20029;-72
2023/08/30 02:57:46;;;;;;;4.85;2.10;;;14.90;61.00;;;;;;5016985;28;20679;-74
2023/08/30 03:00:13;;;;;;;4.45;2.38;;;14.90;61.10;;;;;;5011460;28;20026;-70
2023/08/30 03:02:39;;;;;;;6.45;2.00;;;15.00;61.30;;;;;;5009855;28;20150;-72
2023/08/30 03:05:05;;;;;;;4.88;2.22;;;15.00;61.30;;;;;;5015796;28;20029;-75
2023/08/30 03:07:32;;;;;;;3.72;1.92;;;15.00;61.30;;;;;;5011793;28;20137;-71
2023/08/30 03:09:59;;;;;;;5.95;2.03;;;15.00;61.30;;;;;;5014741;28;20033;-76
2023/08/30 03:12:25;;;;;;;3.75;2.10;;;15.00;61.30;;;;;;5007921;28;20049;-75
2023/08/30 03:14:51;;;;;;;3.30;2.20;;;15.10;61.50;;;;;;5016724;28;20026;-72
2023/08/30 03:17:17;;;;;;;3.75;1.80;;;15.10;61.50;;;;;;5006293;28;20330;-75
2023/08/30 03:19:43;;;;;;;4.93;1.83;;;15.10;61.50;;;;;;5013569;28;20022;-75
2023/08/30 03:22:09;;;;;;;5.82;1.85;;;15.10;61.50;;;;;;5010978;28;20457;-75
2023/08/30 03:24:35;;;;;;;5.53;1.90;;;15.10;61.50;;;;;;5017358;28;20034;-71
2023/08/30 03:27:01;;;;;;;5.80;1.90;;;15.20;61.60;;;;;;5014711;28;20025;-74
2023/08/30 03:29:29;;;;;;;5.20;2.75;;;15.20;61.60;;;;;;5019548;28;20334;-75
2023/08/30 03:31:55;;;;;;;4.40;1.90;;;15.20;61.70;;;;;;5010910;28;20041;-72
2023/08/30 03:34:21;;;;;;;4.47;1.75;;;15.30;61.80;;;;;;5003027;28;20026;-74
2023/08/30 03:36:53;;;;;;;4.05;1.90;;;15.30;61.90;;;;;;5023264;28;20562;-72
2023/08/30 03:39:20;;;;;;;;;;;15.30;61.90;;;;;;5040216;28;20094;-75
2023/08/30 03:41:46;;;;;;;2.75;1.60;;;15.30;61.90;;;;;;5016638;28;19917;-71
2023/08/30 03:44:12;;;;;;;7.72;3.33;;;15.20;61.50;;;;;;5019720;28;20038;-73
2023/08/30 03:46:39;;;;;;;5.65;2.15;;;15.30;61.80;;;;;;5008818;28;20026;-74
2023/08/30 03:49:05;;;;;;;3.60;1.63;;;15.30;61.90;;;;;;5013351;28;20049;-75
2023/08/30 03:51:31;;;;;;;4.53;1.50;;;15.30;61.90;;;;;;5018032;28;20524;-75
2023/08/30 03:53:57;;;;;;;4.13;2.15;;;15.30;62.00;;;;;;5023887;28;20457;-72
2023/08/30 03:56:23;;;;;;;4.53;2.03;;;15.20;61.90;;;;;;5018391;28;20037;-75
2023/08/30 03:58:49;;;;;;;4.65;2.13;;;15.20;61.90;;;;;;5021184;28;20480;-72
2023/08/30 04:01:15;;;;;;;4.22;1.92;;;15.20;62.00;;;;;;4994794;28;20434;-69
2023/08/30 04:03:41;;;;;;;5.00;1.58;;;15.20;62.00;;;;;;5012636;28;20113;-75
2023/08/30 04:06:07;;;;;;;5.50;1.70;;;15.20;62.10;;;;;;5023970;28;20026;-70
2023/08/30 04:08:34;;;;;;;8.27;2.72;;;15.20;62.10;;;;;;5016182;28;20064;-69
2023/08/30 04:11:01;;;;;;;3.63;2.35;;;15.20;62.20;;;;;;5020821;28;20112;-71
2023/08/30 04:13:29;;;;;;;5.40;1.80;;;15.20;62.30;;;;;;5018129;28;20040;-72
2023/08/30 04:15:58;;;;;;;3.33;1.33;;;15.10;62.10;;;;;;5010023;28;20088;-75
2023/08/30 04:18:25;;;;;;;3.97;1.67;;;15.10;62.20;;;;;;5014488;28;20026;-72
2023/08/30 04:20:52;;;;;;;4.40;1.90;;;15.10;62.30;;;;;;5021985;28;20152;-72
2023/08/30 04:23:18;;;;;;;4.38;1.85;;;15.10;62.30;;;;;;5011507;28;20057;-76
2023/08/30 04:25:45;;;;;;;4.65;1.52;;;15.10;62.40;;;;;;5012478;28;20037;-70
2023/08/30 04:28:11;;;;;;;4.13;1.70;;;15.10;62.40;;;;;;5019562;28;20037;-69
2023/08/30 04:30:38;;;;;;;4.60;2.03;;;15.00;62.30;;;;;;5014351;28;20112;-71
2023/08/30 04:33:05;;;;;;;3.47;2.10;;;15.00;62.90;;;;;;5009898;28;20060;-70
2023/08/30 04:35:33;;;;;;;3.08;1.42;;;15.00;62.40;;;;;;5007101;28;20478;-71
2023/08/30 04:38:00;;;;;;;3.75;1.52;;;15.00;62.40;;;;;;5016250;28;20068;-69
2023/08/30 04:40:26;;;;;;;6.85;1.98;;;15.00;62.50;;;;;;5010665;28;20052;-72
2023/08/30 04:42:52;;;;;;;5.30;2.28;;;15.00;62.50;;;;;;5014615;28;20489;-71
2023/08/30 04:45:18;;;;;;;5.13;2.25;;;15.00;62.60;;;;;;5006251;28;20030;-69
2023/08/30 04:47:45;;;;;;;5.50;1.98;;;15.00;62.60;;;;;;5007926;28;20128;-71
2023/08/30 04:50:14;;;;;;;4.18;2.08;;;14.90;62.50;;;;;;5018199;28;20245;-71
2023/08/30 04:52:40;;;;;;;6.68;1.80;;;14.90;62.50;;;;;;5019626;28;20073;-70
2023/08/30 04:55:06;;;;;;;3.30;2.05;;;14.90;62.60;;;;;;5011562;28;20065;-72
2023/08/30 04:57:33;;;;;;;4.60;1.98;;;15.00;62.80;;;;;;5018749;28;20704;-72
2023/08/30 05:00:04;;;;;;;5.72;2.72;;;14.90;62.60;;;;;;5019791;28;20493;-73
2023/08/30 05:02:30;;;;;;;2.15;1.38;;;14.90;62.60;;;;;;5014036;28;20033;-75
2023/08/30 05:05:04;;;;;;;4.53;1.60;;;14.90;62.70;;;;;;5019662;28;20021;-69
2023/08/30 05:07:30;;;;;;;7.05;2.20;;;14.90;62.70;;;;;;5017370;28;20087;-70
2023/08/30 05:09:56;;;;;;;3.60;1.38;;;14.90;62.70;;;;;;4996521;28;20498;-69
2023/08/30 05:12:22;;;;;;;3.05;1.90;;;14.90;62.80;;;;;;5016626;28;20041;-69
2023/08/30 05:14:49;;;;;;;3.60;1.50;;;14.80;62.60;;;;;;5012062;28;20061;-72
2023/08/30 05:17:16;;;;;;;4.13;1.63;;;14.80;62.70;;;;;;5010951;28;20494;-69
2023/08/30 05:19:42;;;;;;;4.63;1.48;;;14.80;62.70;;;;;;5011380;28;20194;-75
2023/08/30 05:22:08;;;;;;;3.92;1.63;;;14.80;62.80;;;;;;5012222;28;20065;-70
2023/08/30 05:24:35;;;;;;;3.72;1.58;;;14.70;62.60;;;;;;5011474;28;20139;-71
2023/08/30 05:27:02;;;;;;;5.70;1.70;;;14.70;62.70;;;;;;5025120;28;20111;-70
2023/08/30 05:29:36;;;;;;;4.05;2.08;;;14.70;62.80;;;;;;5027531;28;20105;-70
2023/08/30 05:32:03;;;;;;;3.97;1.70;;;14.60;62.70;;;;;;5023767;28;20037;-69
2023/08/30 05:34:52;;;;;;;3.90;1.85;;;14.50;62.50;;;;;;5031859;28;20072;-75
2023/08/30 05:37:30;;;;;;;4.03;1.80;;;14.60;62.80;;;;;;5023955;28;20038;-71
2023/08/30 05:40:17;;;;;;;5.75;1.63;;;14.50;62.60;;;;;;5018432;28;20055;-73
2023/08/30 05:42:45;;;;;;;3.63;1.55;;;14.50;62.70;;;;;;5010652;28;20033;-76
2023/08/30 05:45:11;;;;;;;3.33;1.33;;;14.50;62.70;;;;;;5005007;28;20095;-76
2023/08/30 05:47:37;;;;;;;3.65;1.65;;;14.40;62.60;;;;;;5009607;28;20042;-71
2023/08/30 05:50:04;;;;;;;1.90;1.23;;;14.40;62.70;;;;;;5014613;28;20130;-73
2023/08/30 05:52:30;;;;;;;4.55;1.52;;;14.40;62.70;;;;;;5016313;28;20378;-73
2023/08/30 05:54:57;;;;;;;5.82;2.25;;;14.40;62.80;;;;;;5015374;28;20033;-74
2023/08/30 05:57:25;;;;;;;4.75;1.55;;;14.40;62.90;;;;;;5016461;28;20374;-75
2023/08/30 05:59:51;;;;;;;4.95;1.80;;;14.40;63.10;;;;;;5012866;28;20184;-73
2023/08/30 06:02:17;;;;;;;5.40;2.03;;;14.40;63.40;;;;;;5007048;28;20041;-74
2023/08/30 06:04:43;;;;;;;3.70;1.80;;;14.50;63.90;;;;;;5008509;28;20107;-75
2023/08/30 06:07:09;;;;;;;3.13;1.45;;;14.50;63.90;;;;;;5010278;28;20079;-73
2023/08/30 06:09:35;;;;;;;3.35;1.40;;;14.60;64.10;;;;;;5010373;28;20476;-73
2023/08/30 06:12:02;;;;;;;3.95;1.70;;;14.60;64.10;;;;;;5011753;28;20042;-71
2023/08/30 06:14:28;;;;;;;3.65;1.33;;;14.70;64.20;;;;;;5011128;28;20055;-69
2023/08/30 06:16:55;;;;;;;3.20;1.70;;;14.70;64.10;;;;;;5000338;28;20072;-70
2023/08/30 06:19:21;;;;;;;4.85;1.90;;;14.70;64.10;;;;;;5007855;28;20136;-68
2023/08/30 06:21:48;;;;;;;7.03;1.90;;;14.70;64.10;;;;;;5009450;28;20029;-67
2023/08/30 06:24:14;;;;;;;6.95;1.70;;;14.80;64.20;;;;;;5005533;28;20038;-74
2023/08/30 06:26:45;;;;;;;7.78;1.70;;;14.80;64.20;;;;;;5009930;28;20043;-68
2023/08/30 06:29:12;;;;;;;4.60;1.95;;;14.80;64.10;;;;;;5006771;28;20034;-67
2023/08/30 06:31:40;;;;;;;4.78;1.42;;;14.90;64.20;;;;;;5015705;28;20461;-68
2023/08/30 06:34:06;;;;;;;3.97;1.40;;;15.00;64.20;;;;;;5009996;28;20386;-68
2023/08/30 06:36:32;;;;;;;5.07;1.88;;;15.00;64.10;;;;;;5009015;28;20029;-69
2023/08/30 06:38:58;;;;;;;3.33;1.90;;;15.10;64.20;;;;;;5003245;28;20030;-68
2023/08/30 06:41:25;;;;;;;4.30;1.50;;;15.20;64.20;;;;;;5011973;28;20680;-69
2023/08/30 06:43:51;;;;;;;4.18;2.08;;;15.20;64.20;;;;;;5010659;28;20034;-68
2023/08/30 06:46:20;;;;;;;3.30;1.38;;;15.30;64.20;;;;;;5019337;28;20674;-68
2023/08/30 06:48:46;;;;;;;3.83;1.63;;;15.30;64.10;;;;;;5010123;28;20063;-68
2023/08/30 06:51:13;;;;;;;5.72;1.63;;;15.40;64.20;;;;;;5016915;28;20656;-68
2023/08/30 06:53:42;;;;;;;4.97;1.70;;;15.50;64.30;;;;;;5014712;28;20588;-70
2023/08/30 06:56:09;;;;;;;4.32;1.58;;;15.50;64.20;;;;;;5017858;28;20567;-70
2023/08/30 06:58:35;;;;;;;4.13;2.03;;;15.60;64.20;;;;;;5013752;28;20091;-70
2023/08/30 07:01:03;;;;;;;3.60;1.58;;;15.70;64.30;;;;;;5009658;28;20034;-70
2023/08/30 07:03:32;;;;;;;3.88;1.60;;;15.80;64.40;;;;;;5015411;28;20037;-73
2023/08/30 07:05:59;;;;;;;5.40;1.73;;;15.80;64.30;;;;;;5014367;28;20194;-71
2023/08/30 07:08:26;;;;;;;4.80;1.40;;;15.90;64.50;;;;;;5013174;28;20509;-69
2023/08/30 07:10:53;;;;;;;5.05;1.77;;;16.00;65.00;;;;;;5014236;28;20752;-72
2023/08/30 07:13:28;;;;;;;4.82;1.50;;;16.10;65.50;;;;;;5009890;28;20050;-73
2023/08/30 07:15:55;;;;;;;10.38;1.42;;;16.20;65.90;;;;;;5010373;28;20022;-69
2023/08/30 07:18:22;;;;;;;6.50;1.80;;;16.40;66.50;;;;;;5009062;28;20402;-71
2023/08/30 07:20:48;;;;;;;9.90;1.88;;;16.50;67.30;;;;;;5011898;28;20083;-70
2023/08/30 07:23:15;;;;;;;2.95;1.52;;;16.70;67.30;;;;;;5007727;28;20048;-70
2023/08/30 07:25:44;;;;;;;5.25;1.20;;;16.80;67.40;;;;;;5011619;28;20136;-71
2023/08/30 07:28:13;;;;;;;11.27;1.67;;;17.00;67.80;;;;;;5016276;28;20477;-70
2023/08/30 07:30:48;;;;;;;3.60;1.50;;;17.10;67.90;;;;;;5014335;28;20715;-70
2023/08/30 07:33:14;;;;;;;5.28;1.60;;;17.30;68.30;;;;;;5015131;28;20034;-70
2023/08/30 07:35:44;;;;;;;5.63;1.42;;;17.40;68.40;;;;;;5012001;28;20041;-71
2023/08/30 07:38:10;;;;;;;3.83;1.85;;;17.50;68.50;;;;;;5012059;28;20493;-71
2023/08/30 07:40:37;;;;;;;4.63;1.92;;;17.60;68.60;;;;;;5014324;28;20377;-72
2023/08/30 07:43:03;;;;;;;5.57;1.25;;;17.80;69.00;;;;;;5012012;28;20030;-70
2023/08/30 07:45:30;;;;;;;6.55;1.73;;;17.90;69.10;;;;;;5018506;28;20152;-71
2023/08/30 07:47:56;;;;;;;3.67;1.50;;;18.00;69.30;;;;;;5018163;28;20029;-73
2023/08/30 07:50:28;;;;;;;8.52;2.05;;;18.10;69.40;;;;;;5015580;28;20046;-70
2023/08/30 07:52:55;;;;;;;5.22;2.25;;;18.30;69.50;;;;;;5017536;28;20302;-71
2023/08/30 07:55:21;;;;;;;4.57;1.30;;;18.40;69.50;;;;;;5011879;28;20337;-71
2023/08/30 07:57:48;;;;;;;4.63;1.88;;;18.50;69.50;;;;;;4996964;28;20041;-73
2023/08/30 08:00:15;;;;;;;11.82;2.75;;;18.70;69.70;;;;;;5018601;28;20072;-72
2023/08/30 08:02:45;;;;;;;8.52;1.80;;;18.80;69.80;;;;;;5011187;28;20610;-72
2023/08/30 08:05:14;;;;;;;8.52;1.63;;;19.00;69.90;;;;;;5020224;28;20417;-71
2023/08/30 08:07:42;;;;;;;5.90;1.63;;;19.10;69.90;;;;;;5016048;28;20132;-72
2023/08/30 08:10:09;;;;;;;6.70;1.67;;;19.30;70.00;;;;;;5018040;28;20037;-78
2023/08/30 08:12:35;;;;;;;5.82;1.50;;;19.40;69.80;;;;;;5013100;28;20037;-70
2023/08/30 08:15:02;;;;;;;5.93;1.27;;;19.60;69.80;;;;;;5011566;28;20519;-70
2023/08/30 08:17:29;;;;;;;10.45;1.85;;;19.70;69.60;;;;;;5008511;28;20045;-70
2023/08/30 08:19:55;;;;;;;4.40;1.77;;;19.80;69.40;;;;;;5014766;28;20050;-70
2023/08/30 08:22:22;;;;;;;3.15;1.30;;;19.90;69.40;;;;;;5014424;28;20116;-72
2023/08/30 08:24:51;;;;;;;7.03;1.60;;;20.00;69.30;;;;;;5010312;28;20533;-71
2023/08/30 08:27:17;;;;;;;5.07;1.13;;;20.10;69.30;;;;;;5010659;28;20065;-71
2023/08/30 08:29:43;;;;;;;4.70;1.08;;;20.20;69.20;;;;;;5006368;28;20172;-70
2023/08/30 08:32:10;;;;;;;4.10;1.40;;;20.30;69.20;;;;;;5012276;28;20501;-71
2023/08/30 08:34:39;;;;;;;7.55;1.75;;;20.30;69.40;;;;;;5013129;28;20034;-70
2023/08/30 08:37:06;;;;;;;11.40;2.13;;;20.50;68.90;;;;;;5010299;28;20048;-69
2023/08/30 08:39:33;;;;;;;7.57;1.30;;;20.60;68.70;;;;;;5016504;28;20037;-69
2023/08/30 08:42:01;;;;;;;6.53;1.02;;;20.80;68.60;;;;;;5013103;28;20036;-69
2023/08/30 08:44:32;;;;;;;3.70;1.42;;;21.00;68.60;;;;;;5010601;28;20036;-69
2023/08/30 08:46:59;;;;;;;4.75;1.10;;;21.10;68.40;;;;;;5014698;28;20037;-70
2023/08/30 08:49:29;;;;;;;3.90;0.98;;;21.10;68.10;;;;;;5013631;28;20497;-71
2023/08/30 08:51:56;;;;;;;4.47;1.23;;;21.30;68.00;;;;;;5012292;28;20049;-69
2023/08/30 08:54:26;;;;;;;4.03;1.13;;;21.30;67.80;;;;;;5015860;28;20049;-70
2023/08/30 08:56:54;;;;;;;3.45;1.17;;;21.40;67.80;;;;;;5012520;28;20037;-69
2023/08/30 08:59:21;;;;;;;4.57;1.30;;;21.50;67.80;;;;;;5006250;28;20022;-68
2023/08/30 09:01:51;;;;;;;5.43;1.20;;;21.50;67.70;;;;;;5012311;28;20029;-69
2023/08/30 09:04:18;;;;;;;9.20;1.88;;;21.50;67.50;;;;;;5011661;28;20052;-71
2023/08/30 09:06:45;;;;;;;4.00;1.33;;;21.60;67.50;;;;;;5012940;28;20045;-70
2023/08/30 09:09:17;;;;;;;5.57;1.58;;;21.70;67.50;;;;;;5016034;28;20060;-70
2023/08/30 09:11:43;;;;;;;11.10;2.05;;;21.70;67.40;;;;;;5011115;28;20042;-69
2023/08/30 09:14:12;;;;;;;11.35;2.17;;;21.80;67.60;;;;;;5004595;28;20041;-71
2023/08/30 09:16:39;;;;;;;6.40;1.90;;;21.90;67.60;;;;;;5001466;28;20029;-70
2023/08/30 09:19:07;;;;;;;4.03;1.30;;;22.10;67.60;;;;;;5013470;28;20048;-69
2023/08/30 09:21:33;;;;;;;6.68;1.75;;;22.30;67.30;;;;;;5011415;28;20569;-69
2023/08/30 09:24:05;;;;;;;5.80;2.22;;;22.50;66.90;;;;;;5011777;28;20041;-71
2023/08/30 09:26:34;;;;;;;5.30;1.58;;;22.80;66.80;;;;;;5011253;28;20034;-74
2023/08/30 09:29:05;;;;;;;4.07;1.27;;;23.00;66.50;;;;;;5009207;28;22328;-71
2023/08/30 09:31:41;;;;;;;7.13;1.58;;;23.20;66.20;;;;;;5002161;28;20359;-71
2023/08/30 09:34:07;;;;;;;4.22;1.50;;;23.30;65.80;;;;;;5001403;28;20101;-74
2023/08/30 09:36:40;;;;;;;3.55;1.45;;;23.50;65.70;;;;;;5018360;28;20465;-71
2023/08/30 09:39:12;;;;;;;5.97;1.50;;;23.60;65.40;;;;;;5003253;28;20120;-73
2023/08/30 09:41:43;;;;;;;5.68;1.80;;;23.70;65.10;;;;;;5008431;28;20033;-71
2023/08/30 09:44:14;;;;;;;8.90;2.00;;;23.80;65.10;;;;;;5017829;28;20164;-71
2023/08/30 09:46:52;;;;;;;4.55;1.58;;;23.80;64.90;;;;;;5028412;28;20083;-72
2023/08/30 09:49:24;;;;;;;3.50;1.10;;;23.80;64.90;;;;;;5003806;28;20048;-71
2023/08/30 09:51:54;;;;;;;5.00;1.50;;;23.80;64.90;;;;;;5019418;28;20080;-70
2023/08/30 09:54:25;;;;;;;4.60;1.80;;;23.70;64.70;;;;;;5018368;28;20025;-73
2023/08/30 09:56:57;;;;;;;5.97;2.03;;;23.80;64.90;;;;;;5015780;28;20136;-70
2023/08/30 09:59:24;;;;;;;3.42;1.30;;;23.80;64.80;;;;;;4995688;28;20110;-70
2023/08/30 10:01:53;;;;;;;2.38;1.27;;;23.80;64.60;;;;;;5016880;28;20075;-71
2023/08/30 10:04:21;;;;;;;2.88;1.00;;;23.80;64.40;;;;;;5014912;28;20033;-71
2023/08/30 10:06:47;;;;;;;2.72;1.00;;;23.80;64.30;;;;;;5017281;28;20037;-71
2023/08/30 10:09:16;;;;;;;2.97;1.08;;;23.80;64.10;;;;;;5010615;28;20080;-71
2023/08/30 10:11:45;;;;;;;2.38;1.13;;;23.90;64.10;;;;;;5014707;28;20037;-73
2023/08/30 10:14:13;;;;;;;2.95;1.38;;;23.90;64.00;;;;;;5009117;28;20508;-71
2023/08/30 10:16:44;;;;;;;3.03;1.00;;;23.90;63.90;;;;;;5004656;28;20463;-70
2023/08/30 10:19:23;;;;;;;2.63;1.20;;;23.90;63.80;;;;;;5000804;28;20037;-77
2023/08/30 10:21:59;;;;;;;4.68;1.30;;;24.00;63.80;;;;;;5011545;28;20573;-72
2023/08/30 10:24:26;;;;;;;2.72;1.27;;;24.00;63.60;;;;;;5008675;28;20572;-73
2023/08/30 10:26:53;;;;;;;2.05;0.98;;;24.00;63.40;;;;;;5015016;28;20124;-74
2023/08/30 10:29:20;;;;;;;2.45;1.30;;;24.00;63.10;;;;;;5012758;28;20032;-72
2023/08/30 10:31:47;;;;;;;1.00;0.77;;;24.00;63.00;;;;;;5010228;28;20494;-73
2023/08/30 10:34:17;;;;;;;1.98;1.13;;;24.10;63.00;;;;;;5016086;28;20041;-75
2023/08/30 10:36:44;;;;;;;2.00;1.00;;;24.20;63.00;;;;;;5007867;28;20038;-70
2023/08/30 10:39:14;;;;;;;3.53;1.25;;;24.20;62.80;;;;;;5003711;28;20389;-71
2023/08/30 10:41:55;;;;;;;2.13;0.88;;;24.40;62.90;;;;;;5006610;28;20164;-71
2023/08/30 10:44:22;;;;;;;2.88;0.90;;;24.50;62.70;;;;;;5004813;28;20548;-77
2023/08/30 10:46:54;;;;;;;2.47;1.38;;;24.60;62.70;;;;;;5010112;28;20120;-72
2023/08/30 10:49:23;;;;;;;3.00;0.90;;;24.60;62.40;;;;;;5013070;28;20860;-71
2023/08/30 10:52:00;;;;;;;2.38;1.30;;;24.70;62.30;;;;;;5014562;28;20041;-73
2023/08/30 10:54:39;;;;;;;1.17;0.90;;;24.90;62.30;;;;;;5015201;28;20033;-73
2023/08/30 10:57:18;;;;;;;2.73;0.90;;;24.90;62.00;;;;;;5008110;28;20056;-71
2023/08/30 11:00:20;;;;;;;1.27;0.73;;;25.00;62.60;;;;;;5013274;28;20422;-73
2023/08/30 11:02:49;;;;;;;2.47;1.13;;;25.10;61.90;;;;;;5007785;28;20545;-73
2023/08/30 11:05:19;;;;;;;2.38;1.02;;;25.20;61.80;;;;;;5016009;28;20065;-77
2023/08/30 11:07:48;;;;;;;2.08;1.20;;;25.20;61.60;;;;;;5015339;28;20107;-75
2023/08/30 11:10:15;;;;;;;3.58;1.13;;;25.30;61.30;;;;;;5013486;28;20450;-70
2023/08/30 11:12:45;;;;;;;4.32;1.20;;;25.40;61.10;;;;;;5012598;28;20472;-76
2023/08/30 11:15:15;;;;;;;1.30;1.00;;;25.50;60.90;;;;;;5010054;28;20371;-70
2023/08/30 11:17:43;;;;;;;2.38;1.55;;;25.70;60.70;;;;;;5010327;28;20036;-72
2023/08/30 11:20:18;;;;;;;2.58;1.42;;;25.90;60.40;;;;;;5013554;28;20481;-75
2023/08/30 11:22:48;;;;;;;1.88;0.90;;;26.10;60.00;;;;;;5012253;28;20546;-72
2023/08/30 11:25:16;;;;;;;3.92;1.25;;;26.20;59.60;;;;;;5016851;28;20468;-75
2023/08/30 11:27:42;;;;;;;2.42;1.10;;;26.30;59.40;;;;;;5016692;28;20812;-72
2023/08/30 11:30:12;;;;;;;2.40;0.98;;;26.40;59.10;;;;;;5018558;28;20029;-76
2023/08/30 11:32:42;;;;;;;2.95;0.85;;;26.50;58.80;;;;;;5018376;28;20327;-70
2023/08/30 11:35:09;;;;;;;2.42;1.08;;;26.50;58.40;;;;;;5009396;28;20029;-70
2023/08/30 11:37:35;;;;;;;1.98;0.98;;;26.60;58.30;;;;;;5017801;28;20152;-70
2023/08/30 11:40:03;;;;;;;10.43;1.23;;;26.70;58.10;;;;;;5010895;28;20116;-70
2023/08/30 11:42:31;;;;;;;82.32;25.85;;;26.80;57.90;;;;;;5015715;28;20041;-70
2023/08/30 11:45:01;;;;;;;146.25;54.70;;;26.90;57.80;;;;;;5027173;28;20034;-73
2023/08/30 11:47:27;;;;;;;234.80;98.80;;;27.10;57.70;;;;;;5019203;28;20441;-74
2023/08/30 11:49:57;;;;;;;161.98;72.53;;;27.20;57.60;;;;;;5018599;28;20568;-73
2023/08/30 11:52:28;;;;;;;186.55;89.22;;;27.20;58.10;;;;;;5020091;28;20060;-69
2023/08/30 11:54:55;;;;;;;160.85;79.22;;;27.30;57.50;;;;;;5020451;28;20044;-70
2023/08/30 11:57:27;;;;;;;143.25;67.78;;;27.30;57.50;;;;;;5010865;28;20104;-74
2023/08/30 11:59:54;;;;;;;108.90;55.75;;;27.40;57.40;;;;;;5014845;28;20033;-71
2023/08/30 12:02:22;;;;;;;114.18;58.63;;;27.40;57.30;;;;;;5010728;28;20857;-70
2023/08/30 12:04:53;;;;;;;93.90;50.25;;;27.30;57.00;;;;;;5017820;28;20036;-71
2023/08/30 12:07:26;;;;;;;71.55;38.03;;;27.40;57.00;;;;;;5016056;28;20182;-72
2023/08/30 12:10:12;;;;;;;67.75;39.53;;;27.40;56.70;;;;;;5015893;28;20496;-71
2023/08/30 12:12:45;;;;;;;93.75;44.53;;;27.40;56.50;;;;;;5018475;28;20607;-71
2023/08/30 12:15:14;;;;;;;96.68;43.03;;;27.40;56.40;;;;;;5011313;28;20036;-70
2023/08/30 12:17:44;;;;;;;63.70;34.38;;;27.40;56.50;;;;;;5011140;28;20045;-73
2023/08/30 12:20:20;;;;;;;74.68;36.47;;;27.40;56.60;;;;;;5010263;28;20037;-71
2023/08/30 12:22:51;;;;;;;63.10;29.98;;;27.40;56.30;;;;;;5016752;28;20037;-70
2023/08/30 12:25:22;;;;;;;66.57;29.88;;;27.40;56.50;;;;;;5016758;28;20061;-70
2023/08/30 12:27:49;;;;;;;48.17;24.85;;;27.50;56.30;;;;;;5018579;28;20033;-70
2023/08/30 12:30:16;;;;;;;38.25;21.55;;;27.60;56.10;;;;;;5016270;28;20087;-72
2023/08/30 12:32:44;;;;;;;36.38;21.15;;;27.80;55.70;;;;;;5018953;28;20061;-70
2023/08/30 12:35:11;;;;;;;29.35;17.08;;;27.90;55.10;;;;;;5018998;28;20021;-70
2023/08/30 12:37:37;;;;;;;32.47;16.67;;;28.10;54.80;;;;;;5001603;28;20547;-72
2023/08/30 12:40:03;;;;;;;24.73;12.95;;;28.30;54.50;;;;;;5010901;28;20056;-70
2023/08/30 12:42:30;;;;;;;25.25;12.90;;;28.40;54.10;;;;;;5013218;28;20033;-69
2023/08/30 12:44:56;;;;;;;23.52;11.90;;;28.50;53.80;;;;;;5014333;28;20033;-70
2023/08/30 12:47:22;;;;;;;22.67;11.75;;;28.50;53.50;;;;;;5016265;28;20037;-70
2023/08/30 12:49:52;;;;;;;16.55;10.15;;;28.60;53.40;;;;;;5016213;28;20053;-70
2023/08/30 12:52:18;;;;;;;13.55;8.02;;;28.60;53.30;;;;;;5015799;28;20429;-71